Time;durP1;ratioP1;P1;durP2;ratioP2;P2;SDS_P1;SDS_P2;PMS_P1;PMS_P2;Temp;Humidity;BMP_temperature;BMP_pressure;BME280_temperature;BME280_humidity;BME280_pressure;Samples;Min_cycle;Max_cycle;Signal;HPM_P1;HPM_P2
2023/06/10 00:01:13;;;;;;;5.60;1.73;;;;;;;;;;6145389;23;20032;-52
2023/06/10 00:03:41;;;;;;;2.13;1.60;;;;;;;;;;6140899;23;20072;-58
2023/06/10 00:06:15;;;;;;;4.35;1.80;;;;;;;;;;6145163;23;20025;-58
2023/06/10 00:08:42;;;;;;;1.70;1.42;;;;;;;;;;6145144;23;20564;-56
2023/06/10 00:11:10;;;;;;;3.53;1.67;;;;;;;;;;6145493;23;20417;-57
2023/06/10 00:13:43;;;;;;;3.03;1.60;;;;;;;;;;6146715;23;20441;-47
2023/06/10 00:16:10;;;;;;;1.58;1.48;;;;;;;;;;6143564;23;20025;-58
2023/06/10 00:18:44;;;;;;;2.83;1.83;;;;;;;;;;6145726;23;20027;-55
2023/06/10 00:21:13;;;;;;;2.38;1.75;;;;;;;;;;6141176;23;20030;-56
2023/06/10 00:23:41;;;;;;;2.35;1.50;;;;;;;;;;6141830;23;20025;-57
2023/06/10 00:26:15;;;;;;;3.47;1.63;;;;;;;;;;6146890;23;20021;-58
2023/06/10 00:28:44;;;;;;;2.65;1.73;;;;;;;;;;6147185;23;20092;-56
2023/06/10 00:31:19;;;;;;;4.50;1.50;;;;;;;;;;6145460;23;20436;-49
2023/06/10 00:33:46;;;;;;;2.92;1.80;;;;;;;;;;6144857;23;20017;-53
2023/06/10 00:36:13;;;;;;;3.78;1.67;;;;;;;;;;6146029;23;20029;-52
2023/06/10 00:38:47;;;;;;;2.08;1.60;;;;;;;;;;6144912;23;20896;-48
2023/06/10 00:41:14;;;;;;;2.10;1.70;;;;;;;;;;6146294;23;20026;-49
2023/06/10 00:43:41;;;;;;;2.58;1.58;;;;;;;;;;6143369;23;20100;-50
2023/06/10 00:46:22;;;;;;;2.42;1.83;;;;;;;;;;6142923;23;20486;-51
2023/06/10 00:48:56;;;;;;;3.03;1.90;;;;;;;;;;6144826;23;20029;-59
2023/06/10 00:51:30;;;;;;;3.92;1.45;;;;;;;;;;6146003;23;20685;-57
2023/06/10 00:53:58;;;;;;;4.07;1.60;;;;;;;;;;6144335;23;20456;-58
2023/06/10 00:56:25;;;;;;;2.10;1.50;;;;;;;;;;6146525;23;20033;-57
2023/06/10 00:59:00;;;;;;;2.85;2.00;;;;;;;;;;6145141;23;20080;-50
2023/06/10 01:01:27;;;;;;;2.70;1.50;;;;;;;;;;6143822;23;20903;-58
2023/06/10 01:04:00;;;;;;;3.08;1.70;;;;;;;;;;6144010;23;20092;-57
2023/06/10 01:06:31;;;;;;;4.45;1.95;;;;;;;;;;6145849;23;20025;-58
2023/06/10 01:09:07;;;;;;;4.35;1.90;;;;;;;;;;6145678;23;20037;-57
2023/06/10 01:11:50;;;;;;;2.67;1.80;;;;;;;;;;6145937;23;20026;-57
2023/06/10 01:14:17;;;;;;;2.42;1.73;;;;;;;;;;6145154;23;20041;-59
2023/06/10 01:16:53;;;;;;;2.75;1.85;;;;;;;;;;6120107;23;20072;-57
2023/06/10 01:19:24;;;;;;;3.47;1.90;;;;;;;;;;6120077;23;20057;-43
2023/06/10 01:22:00;;;;;;;2.87;1.83;;;;;;;;;;6145347;23;20032;-42
2023/06/10 01:24:28;;;;;;;3.90;1.70;;;;;;;;;;6146236;23;20322;-44
2023/06/10 01:27:02;;;;;;;1.95;1.60;;;;;;;;;;6144923;23;20553;-42
2023/06/10 01:29:34;;;;;;;3.35;1.70;;;;;;;;;;6145454;23;20025;-43
2023/06/10 01:32:19;;;;;;;2.42;1.70;;;;;;;;;;6143558;23;20029;-45
2023/06/10 01:34:55;;;;;;;6.45;2.05;;;;;;;;;;6144767;23;20028;-49
2023/06/10 01:37:24;;;;;;;3.80;1.70;;;;;;;;;;6144712;23;20065;-42
2023/06/10 01:39:59;;;;;;;1.95;1.70;;;;;;;;;;6141071;23;20029;-44
2023/06/10 01:42:26;;;;;;;6.97;2.10;;;;;;;;;;6143404;23;20036;-45
2023/06/10 01:45:07;;;;;;;2.67;2.00;;;;;;;;;;6142112;23;20041;-43
2023/06/10 01:47:41;;;;;;;1.90;1.60;;;;;;;;;;6144405;23;20126;-45
2023/06/10 01:50:16;;;;;;;2.00;1.70;;;;;;;;;;6144481;23;20029;-45
2023/06/10 01:52:43;;;;;;;3.15;2.15;;;;;;;;;;6145978;23;20022;-45
2023/06/10 01:55:17;;;;;;;2.90;1.83;;;;;;;;;;6144843;23;20088;-43
2023/06/10 01:57:44;;;;;;;2.95;2.00;;;;;;;;;;6147360;23;20026;-48
2023/06/10 02:00:12;;;;;;;3.00;1.95;;;;;;;;;;6144230;23;20080;-46
2023/06/10 02:02:46;;;;;;;3.47;1.77;;;;;;;;;;6144146;23;20080;-49
2023/06/10 02:05:20;;;;;;;3.70;2.08;;;;;;;;;;6145545;23;20022;-49
2023/06/10 02:07:53;;;;;;;2.13;1.80;;;;;;;;;;6145492;23;20034;-42
2023/06/10 02:10:21;;;;;;;2.35;1.60;;;;;;;;;;6144628;23;20560;-45
2023/06/10 02:12:48;;;;;;;2.30;1.60;;;;;;;;;;6146328;23;20107;-45
2023/06/10 02:15:21;;;;;;;2.35;1.88;;;;;;;;;;6146445;23;20029;-48
2023/06/10 02:17:49;;;;;;;1.52;1.42;;;;;;;;;;6145721;23;20025;-49
2023/06/10 02:20:22;;;;;;;2.13;1.65;;;;;;;;;;6144666;23;20024;-48
2023/06/10 02:22:56;;;;;;;2.92;1.88;;;;;;;;;;6145752;23;20552;-49
2023/06/10 02:25:24;;;;;;;3.80;1.70;;;;;;;;;;6142634;23;20029;-56
2023/06/10 02:27:57;;;;;;;1.95;1.73;;;;;;;;;;6143058;23;20029;-44
2023/06/10 02:30:25;;;;;;;3.67;1.77;;;;;;;;;;6141773;23;20130;-44
2023/06/10 02:32:52;;;;;;;4.10;1.63;;;;;;;;;;6145297;23;20026;-49
2023/06/10 02:35:26;;;;;;;1.88;1.65;;;;;;;;;;6142370;23;20026;-45
2023/06/10 02:37:54;;;;;;;2.55;1.75;;;;;;;;;;6143252;23;20026;-45
2023/06/10 02:40:21;;;;;;;3.53;1.75;;;;;;;;;;6121321;23;20061;-46
2023/06/10 02:42:55;;;;;;;2.15;1.73;;;;;;;;;;6145561;23;20084;-49
2023/06/10 02:45:22;;;;;;;3.33;1.80;;;;;;;;;;6145435;23;20044;-48
2023/06/10 02:48:03;;;;;;;2.20;1.80;;;;;;;;;;6147265;23;20022;-46
2023/06/10 02:50:30;;;;;;;2.70;2.00;;;;;;;;;;6143969;23;20021;-47
2023/06/10 02:53:05;;;;;;;3.67;1.75;;;;;;;;;;6147252;23;20021;-48
2023/06/10 02:55:32;;;;;;;2.25;1.58;;;;;;;;;;6149120;23;20033;-58
2023/06/10 02:58:00;;;;;;;2.53;1.75;;;;;;;;;;6146783;23;20029;-55
2023/06/10 03:00:33;;;;;;;2.50;1.77;;;;;;;;;;6120389;23;20370;-58
2023/06/10 03:03:03;;;;;;;1.35;1.25;;;;;;;;;;6120050;23;20029;-55
2023/06/10 03:05:36;;;;;;;2.55;1.92;;;;;;;;;;6146915;23;20021;-57
2023/06/10 03:08:04;;;;;;;2.30;1.75;;;;;;;;;;6145726;23;20076;-56
2023/06/10 03:10:32;;;;;;;2.05;1.60;;;;;;;;;;6145414;23;20029;-54
2023/06/10 03:13:06;;;;;;;4.15;1.95;;;;;;;;;;6146167;23;20029;-51
2023/06/10 03:15:33;;;;;;;2.47;1.75;;;;;;;;;;6145533;23;20915;-48
2023/06/10 03:18:07;;;;;;;2.63;1.60;;;;;;;;;;6145036;23;20030;-45
2023/06/10 03:20:39;;;;;;;1.45;1.30;;;;;;;;;;6146899;23;20121;-46
2023/06/10 03:23:06;;;;;;;4.18;1.67;;;;;;;;;;6147162;23;20065;-46
2023/06/10 03:25:40;;;;;;;2.88;1.80;;;;;;;;;;6147052;23;20064;-55
2023/06/10 03:28:08;;;;;;;2.05;1.60;;;;;;;;;;6144239;23;20028;-58
2023/06/10 03:30:42;;;;;;;3.38;1.90;;;;;;;;;;6143092;23;20029;-58
2023/06/10 03:33:09;;;;;;;1.48;1.38;;;;;;;;;;6146099;23;20029;-58
2023/06/10 03:35:36;;;;;;;1.88;1.40;;;;;;;;;;6141000;23;20482;-54
2023/06/10 03:38:09;;;;;;;1.85;1.67;;;;;;;;;;6145883;23;20029;-56
2023/06/10 03:40:37;;;;;;;3.35;1.75;;;;;;;;;;6141443;23;20441;-48
2023/06/10 03:43:04;;;;;;;1.73;1.50;;;;;;;;;;6141801;23;20104;-48
2023/06/10 03:45:45;;;;;;;2.65;1.48;;;;;;;;;;6146534;23;20021;-45
2023/06/10 03:48:18;;;;;;;2.25;1.40;;;;;;;;;;6141807;23;20401;-46
2023/06/10 03:50:52;;;;;;;1.88;1.40;;;;;;;;;;6146474;23;20018;-43
2023/06/10 03:53:20;;;;;;;2.00;1.48;;;;;;;;;;6146604;23;20080;-56
2023/06/10 03:55:48;;;;;;;3.42;1.40;;;;;;;;;;6146319;23;20022;-56
2023/06/10 03:58:21;;;;;;;1.38;1.13;;;;;;;;;;6146843;23;20025;-56
2023/06/10 04:00:49;;;;;;;1.70;1.38;;;;;;;;;;6146488;23;20036;-57
2023/06/10 04:03:23;;;;;;;1.38;1.20;;;;;;;;;;6144865;23;20076;-57
2023/06/10 04:05:51;;;;;;;1.45;1.30;;;;;;;;;;6144612;23;20432;-58
2023/06/10 04:08:20;;;;;;;2.50;1.50;;;;;;;;;;6146571;23;20112;-45
2023/06/10 04:10:53;;;;;;;1.70;1.27;;;;;;;;;;6143916;23;20029;-44
2023/06/10 04:13:20;;;;;;;1.92;1.30;;;;;;;;;;6141956;23;20535;-46
2023/06/10 04:15:55;;;;;;;1.90;1.10;;;;;;;;;;6146145;23;20076;-44
2023/06/10 04:18:22;;;;;;;2.88;1.10;;;;;;;;;;6145623;23;20033;-56
2023/06/10 04:20:49;;;;;;;1.13;0.90;;;;;;;;;;6144228;23;20114;-43
2023/06/10 04:23:23;;;;;;;2.42;1.10;;;;;;;;;;6144130;23;20057;-44
2023/06/10 04:25:50;;;;;;;1.13;0.93;;;;;;;;;;6145317;23;20268;-44
2023/06/10 04:28:17;;;;;;;2.50;0.90;;;;;;;;;;6145217;23;20521;-44
2023/06/10 04:30:50;;;;;;;2.58;1.10;;;;;;;;;;6145158;23;20488;-43
2023/06/10 04:33:17;;;;;;;1.05;1.00;;;;;;;;;;6145318;23;20104;-46
2023/06/10 04:35:51;;;;;;;2.67;0.80;;;;;;;;;;6144520;23;20034;-43
2023/06/10 04:38:19;;;;;;;1.38;0.85;;;;;;;;;;6146090;23;20040;-45
2023/06/10 04:40:46;;;;;;;3.13;1.00;;;;;;;;;;6142904;23;20062;-48
2023/06/10 04:43:19;;;;;;;1.05;0.75;;;;;;;;;;6142753;23;20033;-44
2023/06/10 04:45:47;;;;;;;2.30;1.00;;;;;;;;;;6144368;23;20060;-47
2023/06/10 04:48:27;;;;;;;1.70;1.00;;;;;;;;;;6145009;23;20029;-46
2023/06/10 04:50:56;;;;;;;1.40;0.90;;;;;;;;;;6145362;23;20421;-57
2023/06/10 04:53:30;;;;;;;0.80;0.80;;;;;;;;;;6144898;23;20040;-56
2023/06/10 04:55:57;;;;;;;2.05;0.90;;;;;;;;;;6142864;23;20104;-58
2023/06/10 04:58:25;;;;;;;2.63;1.13;;;;;;;;;;6145994;23;20029;-55
2023/06/10 05:00:59;;;;;;;2.10;0.82;;;;;;;;;;6145062;23;20026;-58
2023/06/10 05:03:27;;;;;;;2.65;1.10;;;;;;;;;;6144778;23;20068;-58
2023/06/10 05:06:01;;;;;;;1.00;0.90;;;;;;;;;;6146298;23;20068;-49
2023/06/10 05:08:28;;;;;;;1.35;1.15;;;;;;;;;;6145120;23;20028;-49
2023/06/10 05:10:55;;;;;;;1.65;0.93;;;;;;;;;;6144166;23;20025;-48
2023/06/10 05:13:29;;;;;;;2.53;1.05;;;;;;;;;;6145083;23;20025;-50
2023/06/10 05:15:56;;;;;;;1.10;1.00;;;;;;;;;;6145500;23;20021;-47
2023/06/10 05:18:31;;;;;;;1.92;0.80;;;;;;;;;;6140213;23;20025;-58
2023/06/10 05:20:58;;;;;;;3.08;0.73;;;;;;;;;;6145697;23;20026;-57
2023/06/10 05:23:25;;;;;;;1.98;0.90;;;;;;;;;;6145436;23;20029;-57
2023/06/10 05:25:59;;;;;;;0.80;0.80;;;;;;;;;;6145634;23;20060;-56
2023/06/10 05:28:26;;;;;;;2.78;0.80;;;;;;;;;;6140860;23;20029;-58
2023/06/10 05:30:53;;;;;;;1.75;1.10;;;;;;;;;;6145414;23;20493;-58
2023/06/10 05:33:27;;;;;;;1.08;0.88;;;;;;;;;;6145663;23;20025;-54
2023/06/10 05:35:55;;;;;;;2.15;1.05;;;;;;;;;;6145960;23;20029;-53
2023/06/10 05:38:28;;;;;;;1.13;0.90;;;;;;;;;;6145508;23;20044;-57
2023/06/10 05:40:56;;;;;;;1.00;0.90;;;;;;;;;;6143308;23;20061;-57
2023/06/10 05:43:24;;;;;;;0.80;0.80;;;;;;;;;;6144442;23;20033;-58
2023/06/10 05:46:04;;;;;;;1.15;1.00;;;;;;;;;;6144434;23;20029;-46
2023/06/10 05:48:31;;;;;;;1.42;0.80;;;;;;;;;;6143229;23;20531;-44
2023/06/10 05:51:06;;;;;;;1.10;0.55;;;;;;;;;;6145280;23;20650;-45
2023/06/10 05:53:33;;;;;;;1.05;0.85;;;;;;;;;;6142409;23;20714;-46
2023/06/10 05:56:00;;;;;;;0.80;0.80;;;;;;;;;;6144265;23;20028;-43
2023/06/10 05:58:34;;;;;;;0.82;0.82;;;;;;;;;;6146269;23;20864;-46
2023/06/10 06:01:01;;;;;;;0.68;0.65;;;;;;;;;;6146898;23;20047;-42
2023/06/10 06:03:35;;;;;;;1.33;0.88;;;;;;;;;;6142791;23;20036;-47
2023/06/10 06:06:03;;;;;;;2.13;0.95;;;;;;;;;;6147043;23;20057;-48
2023/06/10 06:08:30;;;;;;;1.45;1.00;;;;;;;;;;6144103;23;20026;-44
2023/06/10 06:11:03;;;;;;;2.30;0.70;;;;;;;;;;6146854;23;20021;-48
2023/06/10 06:13:31;;;;;;;0.65;0.63;;;;;;;;;;6146173;23;20496;-59
2023/06/10 06:15:58;;;;;;;1.25;0.63;;;;;;;;;;6147831;23;20485;-46
2023/06/10 06:18:31;;;;;;;1.55;0.70;;;;;;;;;;6147296;23;20025;-47
2023/06/10 06:20:59;;;;;;;1.45;1.20;;;;;;;;;;6146290;23;20274;-46
2023/06/10 06:23:26;;;;;;;0.50;0.50;;;;;;;;;;6146723;23;20285;-48
2023/06/10 06:25:59;;;;;;;0.80;0.50;;;;;;;;;;6141040;23;20546;-47
2023/06/10 06:28:28;;;;;;;1.33;1.00;;;;;;;;;;6148393;23;20066;-46
2023/06/10 06:31:02;;;;;;;5.00;0.80;;;;;;;;;;6142182;23;20820;-43
2023/06/10 06:33:30;;;;;;;1.52;0.70;;;;;;;;;;6138313;23;20568;-47
2023/06/10 06:35:57;;;;;;;1.25;0.65;;;;;;;;;;6121034;23;20030;-59
2023/06/10 06:38:30;;;;;;;1.08;0.70;;;;;;;;;;6141863;23;20246;-59
2023/06/10 06:41:02;;;;;;;2.72;0.85;;;;;;;;;;6143112;23;20025;-60
2023/06/10 06:43:37;;;;;;;1.23;0.82;;;;;;;;;;6144155;23;20088;-59
2023/06/10 06:46:10;;;;;;;0.50;0.50;;;;;;;;;;6118705;23;20018;-59
2023/06/10 06:48:51;;;;;;;1.27;0.80;;;;;;;;;;6144160;23;20025;-58
2023/06/10 06:51:19;;;;;;;2.72;0.82;;;;;;;;;;6144109;23;20564;-48
2023/06/10 06:53:56;;;;;;;0.60;0.57;;;;;;;;;;6144440;23;20025;-51
2023/06/10 06:56:24;;;;;;;0.70;0.70;;;;;;;;;;6146672;23;20554;-48
2023/06/10 06:58:51;;;;;;;4.35;0.98;;;;;;;;;;6145256;23;20036;-51
2023/06/10 07:01:25;;;;;;;1.30;1.00;;;;;;;;;;6146487;23;20029;-52
2023/06/10 07:03:52;;;;;;;1.30;0.70;;;;;;;;;;6143172;23;20485;-51
2023/06/10 07:06:25;;;;;;;1.35;0.63;;;;;;;;;;6144169;23;20025;-52
2023/06/10 07:08:53;;;;;;;0.82;0.80;;;;;;;;;;6146769;23;20022;-43
2023/06/10 07:11:20;;;;;;;0.88;0.70;;;;;;;;;;6143151;23;20026;-50
2023/06/10 07:13:53;;;;;;;1.38;0.60;;;;;;;;;;6146870;23;20092;-50
2023/06/10 07:16:21;;;;;;;1.48;0.80;;;;;;;;;;6143708;23;20037;-50
2023/06/10 07:18:54;;;;;;;1.42;0.82;;;;;;;;;;6143990;23;20433;-53
2023/06/10 07:21:23;;;;;;;1.40;0.77;;;;;;;;;;6144722;23;20025;-49
2023/06/10 07:23:53;;;;;;;0.52;0.52;;;;;;;;;;6144206;23;20513;-52
2023/06/10 07:26:27;;;;;;;2.22;1.02;;;;;;;;;;6146482;23;20056;-51
2023/06/10 07:28:54;;;;;;;1.23;0.57;;;;;;;;;;6144407;23;20034;-49
2023/06/10 07:31:21;;;;;;;3.63;0.90;;;;;;;;;;6144900;23;20032;-50
2023/06/10 07:33:56;;;;;;;1.00;0.88;;;;;;;;;;6142985;23;20045;-52
2023/06/10 07:36:23;;;;;;;0.98;0.75;;;;;;;;;;6143489;23;20029;-47
2023/06/10 07:38:56;;;;;;;1.05;0.65;;;;;;;;;;6145704;23;20029;-61
2023/06/10 07:41:27;;;;;;;0.73;0.60;;;;;;;;;;6145244;23;20378;-60
2023/06/10 07:43:55;;;;;;;2.00;0.65;;;;;;;;;;6146456;23;20026;-60
2023/06/10 07:46:36;;;;;;;0.50;0.50;;;;;;;;;;6147078;23;20029;-62
2023/06/10 07:49:10;;;;;;;9.05;1.00;;;;;;;;;;6145491;23;20028;-61
2023/06/10 07:51:50;;;;;;;2.35;1.00;;;;;;;;;;6146087;23;20432;-60
2023/06/10 07:54:18;;;;;;;1.00;0.70;;;;;;;;;;6146468;23;20100;-52
2023/06/10 07:56:56;;;;;;;0.82;0.70;;;;;;;;;;6146119;23;20113;-52
2023/06/10 07:59:24;;;;;;;0.55;0.40;;;;;;;;;;6145779;23;20029;-53
2023/06/10 08:01:59;;;;;;;2.40;0.70;;;;;;;;;;6146659;23;20057;-52
2023/06/10 08:04:26;;;;;;;1.05;0.60;;;;;;;;;;6145760;23;20048;-47
2023/06/10 08:06:53;;;;;;;4.20;3.83;;;;;;;;;;6143384;23;20058;-50
2023/06/10 08:09:27;;;;;;;1.92;1.75;;;;;;;;;;6142290;23;20029;-49
2023/06/10 08:11:55;;;;;;;1.27;0.80;;;;;;;;;;6148042;23;20080;-53
2023/06/10 08:14:22;;;;;;;2.00;1.23;;;;;;;;;;6143092;23;20084;-49
2023/06/10 08:16:56;;;;;;;1.83;0.70;;;;;;;;;;6144144;23;20025;-53
2023/06/10 08:19:24;;;;;;;5.45;4.82;;;;;;;;;;6145782;23;20029;-50
2023/06/10 08:21:58;;;;;;;3.33;3.13;;;;;;;;;;6145533;23;20025;-54
2023/06/10 08:24:25;;;;;;;1.27;0.70;;;;;;;;;;6146457;23;20018;-61
2023/06/10 08:26:52;;;;;;;4.35;0.95;;;;;;;;;;6145734;23;20025;-61
2023/06/10 08:29:26;;;;;;;2.72;2.60;;;;;;;;;;6146470;23;20029;-61
2023/06/10 08:31:54;;;;;;;2.97;0.75;;;;;;;;;;6145040;23;20025;-61
2023/06/10 08:34:28;;;;;;;2.17;0.80;;;;;;;;;;6120114;23;20040;-53
2023/06/10 08:36:55;;;;;;;1.02;0.60;;;;;;;;;;6144434;23;20572;-61
2023/06/10 08:39:23;;;;;;;0.93;0.60;;;;;;;;;;6145733;23;20025;-60
2023/06/10 08:42:01;;;;;;;4.40;1.17;;;;;;;;;;6145279;23;20025;-61
2023/06/10 08:44:29;;;;;;;1.25;0.68;;;;;;;;;;6143831;23;20551;-61
2023/06/10 08:47:03;;;;;;;2.08;0.90;;;;;;;;;;6144620;23;20029;-61
2023/06/10 08:49:45;;;;;;;0.95;0.80;;;;;;;;;;6146737;23;20029;-61
2023/06/10 08:52:19;;;;;;;1.90;0.93;;;;;;;;;;6145390;23;20557;-45
2023/06/10 08:55:00;;;;;;;1.48;1.08;;;;;;;;;;6145362;23;20528;-45
2023/06/10 08:57:27;;;;;;;4.90;0.88;;;;;;;;;;6146726;23;20485;-42
2023/06/10 09:00:02;;;;;;;1.00;0.90;;;;;;;;;;6145189;23;20030;-43
2023/06/10 09:02:37;;;;;;;1.10;1.00;;;;;;;;;;6144329;23;20856;-57
2023/06/10 09:05:04;;;;;;;;;;;;;;;;;;6142244;23;20025;-58
2023/06/10 09:07:39;;;;;;;1.17;1.00;;;;;;;;;;6142936;23;19920;-58
2023/06/10 09:10:09;;;;;;;;;;;;;;;;;;6137360;23;20124;-55
2023/06/10 09:12:37;;;;;;;1.55;0.98;;;;;;;;;;6143297;23;19952;-55
2023/06/10 09:15:12;;;;;;;2.15;1.10;;;;;;;;;;6141355;23;20048;-57
2023/06/10 09:17:40;;;;;;;;;;;;;;;;;;6144440;23;20394;-56
2023/06/10 09:20:14;;;;;;;2.72;1.10;;;;;;;;;;6144988;23;20375;-57
2023/06/10 09:22:42;;;;;;;2.70;1.30;;;;;;;;;;6143517;23;20099;-57
2023/06/10 09:25:11;;;;;;;2.15;0.80;;;;;;;;;;6143834;23;20026;-55
2023/06/10 09:27:49;;;;;;;1.23;1.13;;;;;;;;;;6144165;23;20029;-54
2023/06/10 09:30:37;;;;;;;1.35;0.70;;;;;;;;;;6139744;23;20029;-51
2023/06/10 09:33:12;;;;;;;1.83;1.05;;;;;;;;;;6137728;23;20026;-55
2023/06/10 09:35:45;;;;;;;2.40;0.88;;;;;;;;;;6139377;23;20093;-53
2023/06/10 09:38:22;;;;;;;1.52;1.10;;;;;;;;;;6142667;23;20127;-53
2023/06/10 09:40:50;;;;;;;1.55;1.10;;;;;;;;;;6141762;23;20315;-55
2023/06/10 09:43:18;;;;;;;1.42;1.00;;;;;;;;;;6144497;23;20519;-54
2023/06/10 09:45:55;;;;;;;3.53;0.98;;;;;;;;;;6144947;23;20080;-53
2023/06/10 09:48:28;;;;;;;3.40;0.90;;;;;;;;;;6143125;23;20036;-43
2023/06/10 09:51:01;;;;;;;1.40;1.10;;;;;;;;;;6143425;23;20437;-46
2023/06/10 09:53:33;;;;;;;1.52;1.00;;;;;;;;;;6144126;23;20096;-48
2023/06/10 09:56:08;;;;;;;2.33;1.35;;;;;;;;;;6145312;23;20107;-50
2023/06/10 09:58:38;;;;;;;1.63;1.25;;;;;;;;;;6146003;23;20100;-51
2023/06/10 10:01:12;;;;;;;1.98;1.15;;;;;;;;;;6143791;23;20033;-48
2023/06/10 10:03:47;;;;;;;2.22;0.90;;;;;;;;;;6144771;23;20022;-56
2023/06/10 10:06:15;;;;;;;1.10;0.82;;;;;;;;;;6142708;23;20502;-58
2023/06/10 10:08:50;;;;;;;1.27;0.70;;;;;;;;;;6143013;23;20032;-58
2023/06/10 10:11:19;;;;;;;1.58;1.00;;;;;;;;;;6147149;23;20028;-55
2023/06/10 10:13:48;;;;;;;1.95;1.10;;;;;;;;;;6148310;23;20033;-55
2023/06/10 10:16:23;;;;;;;1.92;1.00;;;;;;;;;;6148647;23;20033;-49
2023/06/10 10:18:55;;;;;;;1.10;1.00;;;;;;;;;;6146746;23;20238;-44
2023/06/10 10:21:28;;;;;;;;;;;;;;;;;;6147062;23;20489;-51
2023/06/10 10:24:12;;;;;;;1.58;1.00;;;;;;;;;;6147224;23;19920;-51
2023/06/10 10:26:47;;;;;;;1.80;1.10;;;;;;;;;;6148078;23;20025;-53
2023/06/10 10:29:14;;;;;;;1.40;1.08;;;;;;;;;;6147235;23;20376;-49
2023/06/10 10:31:53;;;;;;;1.80;1.08;;;;;;;;;;6147071;23;20025;-55
2023/06/10 10:34:25;;;;;;;1.65;0.82;;;;;;;;;;6148060;23;20022;-54
2023/06/10 10:37:00;;;;;;;3.17;1.00;;;;;;;;;;6123341;23;20026;-56
2023/06/10 10:39:28;;;;;;;2.30;1.10;;;;;;;;;;6146394;23;20087;-55
2023/06/10 10:42:03;;;;;;;1.05;0.80;;;;;;;;;;6146449;23;20026;-54
2023/06/10 10:44:31;;;;;;;2.33;0.90;;;;;;;;;;6147816;23;20022;-56
2023/06/10 10:47:03;;;;;;;3.25;1.00;;;;;;;;;;6146902;23;20036;-54
2023/06/10 10:49:38;;;;;;;1.48;0.98;;;;;;;;;;6141713;23;20025;-52
2023/06/10 10:52:06;;;;;;;3.97;1.15;;;;;;;;;;6144523;23;20106;-50
2023/06/10 10:54:44;;;;;;;3.10;1.17;;;;;;;;;;6148023;23;20025;-48
2023/06/10 10:57:18;;;;;;;4.25;0.95;;;;;;;;;;6143409;23;20121;-50
2023/06/10 10:59:55;;;;;;;2.20;1.17;;;;;;;;;;6146344;23;20606;-49
2023/06/10 11:02:43;;;;;;;2.90;1.05;;;;;;;;;;6146683;23;20026;-49
2023/06/10 11:05:17;;;;;;;1.52;1.08;;;;;;;;;;6147205;23;20498;-57
2023/06/10 11:07:44;;;;;;;;;;;;;;;;;;6147704;23;20021;-57
2023/06/10 11:10:12;;;;;;;1.15;1.05;;;;;;;;;;6146448;23;19917;-56
2023/06/10 11:12:47;;;;;;;1.80;0.98;;;;;;;;;;6147314;23;20021;-54
2023/06/10 11:15:14;;;;;;;1.98;1.38;;;;;;;;;;6141535;23;20565;-53
2023/06/10 11:18:06;;;;;;;1.73;1.17;;;;;;;;;;6144694;23;20645;-47
2023/06/10 11:20:48;;;;;;;4.25;1.90;;;;;;;;;;6143557;23;20429;-52
2023/06/10 11:23:29;;;;;;;2.70;1.40;;;;;;;;;;6140805;23;20037;-47
2023/06/10 11:26:11;;;;;;;2.10;1.25;;;;;;;;;;6142445;23;20029;-48
2023/06/10 11:28:39;;;;;;;2.17;1.20;;;;;;;;;;6141884;23;20037;-49
2023/06/10 11:31:22;;;;;;;1.95;1.35;;;;;;;;;;6142655;23;20040;-46
2023/06/10 11:33:57;;;;;;;1.77;1.07;;;;;;;;;;6142723;23;20105;-62
2023/06/10 11:36:31;;;;;;;1.55;1.15;;;;;;;;;;6144404;23;20021;-62
2023/06/10 11:39:03;;;;;;;4.05;1.10;;;;;;;;;;6143233;23;20065;-60
2023/06/10 11:41:36;;;;;;;;;;;;;;;;;;6143500;23;20080;-52
2023/06/10 11:44:07;;;;;;;1.58;1.30;;;;;;;;;;6141791;23;19967;-57
2023/06/10 11:46:35;;;;;;;2.75;1.48;;;;;;;;;;6143448;23;20389;-49
2023/06/10 11:49:15;;;;;;;1.63;1.40;;;;;;;;;;6143376;23;20180;-47
2023/06/10 11:51:49;;;;;;;3.50;1.38;;;;;;;;;;6143405;23;20497;-51
2023/06/10 11:54:23;;;;;;;3.47;1.30;;;;;;;;;;6145373;23;20030;-49
2023/06/10 11:56:50;;;;;;;2.40;1.50;;;;;;;;;;6144255;23;20026;-49
2023/06/10 11:59:27;;;;;;;2.42;1.38;;;;;;;;;;6143596;23;20030;-49
2023/06/10 12:01:54;;;;;;;2.10;1.10;;;;;;;;;;6144043;23;20099;-54
2023/06/10 12:04:22;;;;;;;3.78;1.35;;;;;;;;;;6140402;23;20100;-53
2023/06/10 12:06:56;;;;;;;2.05;1.33;;;;;;;;;;6143343;23;20021;-50
2023/06/10 12:09:24;;;;;;;1.67;1.25;;;;;;;;;;6141774;23;20563;-54
2023/06/10 12:12:01;;;;;;;1.50;1.40;;;;;;;;;;6144748;23;20030;-61
2023/06/10 12:14:54;;;;;;;1.45;1.35;;;;;;;;;;6142995;23;20088;-51
2023/06/10 12:17:31;;;;;;;2.83;1.27;;;;;;;;;;6142647;23;20509;-52
2023/06/10 12:20:07;;;;;;;2.95;1.40;;;;;;;;;;6145736;23;20766;-54
2023/06/10 12:22:42;;;;;;;1.42;1.33;;;;;;;;;;6145849;23;20026;-52
2023/06/10 12:25:15;;;;;;;1.98;1.52;;;;;;;;;;6139971;23;20563;-51
2023/06/10 12:27:55;;;;;;;1.42;1.25;;;;;;;;;;6144833;23;20080;-48
2023/06/10 12:30:29;;;;;;;2.33;1.27;;;;;;;;;;6146863;23;20429;-51
2023/06/10 12:32:57;;;;;;;;;;;;;;;;;;6142991;23;20092;-47
2023/06/10 12:35:31;;;;;;;2.50;1.20;;;;;;;;;;6143178;23;19984;-46
2023/06/10 12:38:00;;;;;;;6.15;1.40;;;;;;;;;;6144406;23;20088;-45
2023/06/10 12:40:28;;;;;;;1.58;1.23;;;;;;;;;;6141966;23;20065;-48
2023/06/10 12:43:03;;;;;;;3.80;1.50;;;;;;;;;;6145304;23;20029;-50
2023/06/10 12:45:39;;;;;;;1.95;1.48;;;;;;;;;;6146120;23;20079;-51
2023/06/10 12:48:25;;;;;;;2.15;1.52;;;;;;;;;;6140799;23;20061;-48
2023/06/10 12:51:00;;;;;;;2.15;1.42;;;;;;;;;;6144754;23;20556;-45
2023/06/10 12:53:27;;;;;;;;;;;;;;;;;;6143708;23;20145;-47
2023/06/10 12:56:02;;;;;;;2.08;1.45;;;;;;;;;;6142020;23;19979;-50
2023/06/10 12:58:29;;;;;;;1.88;1.40;;;;;;;;;;6141478;23;20107;-46
2023/06/10 13:01:04;;;;;;;2.00;1.48;;;;;;;;;;6140174;23;20509;-47
2023/06/10 13:03:40;;;;;;;4.10;1.23;;;;;;;;;;6143647;23;20033;-49
2023/06/10 13:06:13;;;;;;;1.98;1.15;;;;;;;;;;6145515;23;20025;-49
2023/06/10 13:08:48;;;;;;;2.20;1.48;;;;;;;;;;6147098;23;20433;-54
2023/06/10 13:11:16;;;;;;;;;;;;;;;;;;6146453;23;20044;-51
2023/06/10 13:13:43;;;;;;;1.67;1.50;;;;;;;;;;6146152;23;19921;-48
2023/06/10 13:16:17;;;;;;;1.92;1.30;;;;;;;;;;6146306;23;20537;-54
2023/06/10 13:18:44;;;;;;;3.38;1.52;;;;;;;;;;6144214;23;20037;-49
2023/06/10 13:21:18;;;;;;;1.20;1.10;;;;;;;;;;6146204;23;20076;-49
2023/06/10 13:23:47;;;;;;;3.95;1.30;;;;;;;;;;6143710;23;20539;-58
2023/06/10 13:26:21;;;;;;;2.30;1.42;;;;;;;;;;6142011;23;20018;-58
2023/06/10 13:28:48;;;;;;;2.13;1.30;;;;;;;;;;6146512;23;20579;-57
2023/06/10 13:31:16;;;;;;;2.80;1.40;;;;;;;;;;6145825;23;20076;-57
2023/06/10 13:33:50;;;;;;;1.45;1.30;;;;;;;;;;6144907;23;20783;-63
2023/06/10 13:36:17;;;;;;;4.90;1.60;;;;;;;;;;6146661;23;20083;-50
2023/06/10 13:38:51;;;;;;;2.05;1.55;;;;;;;;;;6143693;23;20021;-58
2023/06/10 13:41:18;;;;;;;1.83;1.20;;;;;;;;;;6141750;23;20029;-58
2023/06/10 13:43:45;;;;;;;4.30;1.48;;;;;;;;;;6144735;23;20493;-57
2023/06/10 13:46:21;;;;;;;1.23;1.10;;;;;;;;;;6145761;23;20026;-56
2023/06/10 13:48:54;;;;;;;5.00;1.50;;;;;;;;;;6144725;23;20021;-56
2023/06/10 13:51:28;;;;;;;4.03;1.20;;;;;;;;;;6146168;23;20026;-58
2023/06/10 13:53:55;;;;;;;4.53;1.70;;;;;;;;;;6145879;23;20088;-46
2023/06/10 13:56:29;;;;;;;4.13;1.58;;;;;;;;;;6145519;23;20029;-49
2023/06/10 13:58:56;;;;;;;1.92;1.50;;;;;;;;;;6146844;23;20025;-46
2023/06/10 14:01:23;;;;;;;2.70;1.60;;;;;;;;;;6143967;23;20049;-50
2023/06/10 14:03:58;;;;;;;1.67;1.40;;;;;;;;;;6142955;23;20028;-56
2023/06/10 14:06:26;;;;;;;1.65;1.40;;;;;;;;;;6142999;23;20025;-55
2023/06/10 14:09:00;;;;;;;6.10;1.60;;;;;;;;;;6143482;23;20025;-54
2023/06/10 14:11:27;;;;;;;4.85;1.65;;;;;;;;;;6142723;23;20025;-55
2023/06/10 14:13:58;;;;;;;3.45;1.27;;;;;;;;;;6120198;23;20031;-55
2023/06/10 14:16:32;;;;;;;3.35;1.73;;;;;;;;;;6144869;23;20112;-52
2023/06/10 14:18:59;;;;;;;1.60;1.27;;;;;;;;;;6144721;23;20032;-49
2023/06/10 14:21:33;;;;;;;2.67;1.63;;;;;;;;;;6145492;23;20528;-44
2023/06/10 14:24:00;;;;;;;3.97;1.40;;;;;;;;;;6144731;23;20080;-46
2023/06/10 14:26:27;;;;;;;4.93;1.63;;;;;;;;;;6117171;23;20031;-47
2023/06/10 14:29:02;;;;;;;2.67;1.65;;;;;;;;;;6145245;23;20029;-45
2023/06/10 14:31:29;;;;;;;1.52;1.25;;;;;;;;;;6144650;23;20025;-49
2023/06/10 14:34:03;;;;;;;5.82;1.40;;;;;;;;;;6146490;23;20064;-53
2023/06/10 14:36:30;;;;;;;;;;;;;;;;;;6144029;23;20481;-54
2023/06/10 14:38:57;;;;;;;2.58;1.10;;;;;;;;;;6143932;23;19924;-53
2023/06/10 14:41:31;;;;;;;2.17;1.10;;;;;;;;;;6143896;23;20433;-56
2023/06/10 14:43:58;;;;;;;2.20;1.33;;;;;;;;;;6146939;23;20017;-51
2023/06/10 14:46:38;;;;;;;2.40;1.30;;;;;;;;;;6146168;23;20030;-55
2023/06/10 14:49:12;;;;;;;2.72;1.42;;;;;;;;;;6146487;23;20441;-49
2023/06/10 14:51:46;;;;;;;1.45;1.20;;;;;;;;;;6142784;23;20025;-53
2023/06/10 14:54:13;;;;;;;;;;;;;;;;;;6146253;23;20037;-49
2023/06/10 14:56:40;;;;;;;7.53;1.63;;;;;;;;;;6145561;23;19921;-50
2023/06/10 14:59:15;;;;;;;3.58;1.45;;;;;;;;;;6143388;23;20418;-51
2023/06/10 15:01:45;;;;;;;1.65;1.45;;;;;;;;;;6118724;23;20065;-48
2023/06/10 15:04:28;;;;;;;1.80;1.17;;;;;;;;;;6144989;23;20017;-60
2023/06/10 15:06:56;;;;;;;4.15;1.35;;;;;;;;;;6117351;23;20022;-60
2023/06/10 15:09:31;;;;;;;2.00;1.13;;;;;;;;;;6142807;23;20359;-59
2023/06/10 15:12:05;;;;;;;2.35;1.50;;;;;;;;;;6145397;23;20037;-58